createdAt,value
2019-05-23T00:00:59.194Z,67.70
2019-05-23T00:03:38.124Z,67.70
2019-05-23T00:06:11.338Z,67.70
2019-05-23T00:08:42.885Z,68.00
2019-05-23T00:11:33.472Z,67.60
2019-05-23T00:14:08.400Z,68.10
2019-05-23T00:16:40.615Z,67.90
2019-05-23T00:19:11.885Z,68.00
2019-05-23T00:21:44.035Z,68.10
2019-05-23T00:24:15.252Z,68.10
2019-05-23T00:26:47.254Z,68.00
2019-05-23T00:29:19.249Z,67.80
2019-05-23T00:32:00.369Z,67.80
2019-05-23T00:34:34.118Z,67.90
2019-05-23T00:37:07.127Z,68.10
2019-05-23T00:39:38.421Z,68.60
2019-05-23T00:42:10.987Z,67.80
2019-05-23T00:44:42.213Z,67.70
2019-05-23T00:47:13.798Z,67.50
2019-05-23T00:49:47.230Z,67.60
2019-05-23T00:52:18.691Z,67.50
2019-05-23T00:54:50.659Z,67.70
2019-05-23T00:57:21.863Z,67.70
2019-05-23T00:59:53.087Z,67.70
2019-05-23T01:02:25.398Z,67.50
2019-05-23T01:04:56.640Z,67.70
2019-05-23T01:07:28.004Z,67.60
2019-05-23T01:10:00.574Z,67.70
2019-05-23T01:12:33.099Z,67.80
2019-05-23T01:15:06.616Z,67.80
2019-05-23T01:17:38.285Z,67.70
2019-05-23T01:20:12.309Z,67.60
2019-05-23T01:22:43.681Z,67.40
2019-05-23T01:25:16.167Z,67.60
2019-05-23T01:27:47.778Z,67.70
2019-05-23T01:30:22.506Z,67.70
2019-05-23T01:32:55.768Z,67.60
2019-05-23T01:35:27.881Z,67.60
2019-05-23T01:38:03.412Z,67.60
2019-05-23T01:40:33.291Z,67.70
2019-05-23T01:43:05.291Z,67.80
2019-05-23T01:45:38.390Z,67.80
2019-05-23T01:48:11.194Z,67.80
2019-05-23T01:50:43.075Z,67.60
2019-05-23T01:53:15.849Z,67.80
2019-05-23T01:55:47.854Z,67.80
2019-05-23T01:58:20.085Z,67.90
2019-05-23T02:00:51.364Z,67.40
2019-05-23T02:03:23.221Z,67.20
2019-05-23T02:05:54.802Z,67.00
2019-05-23T02:08:26.017Z,67.20
2019-05-23T02:10:57.244Z,67.40
2019-05-23T02:13:28.378Z,67.60
2019-05-23T02:16:00.422Z,67.80
2019-05-23T02:18:32.390Z,67.90
2019-05-23T02:21:05.344Z,67.90
2019-05-23T02:23:36.547Z,67.90
2019-05-23T02:26:08.911Z,67.80
2019-05-23T02:28:41.393Z,67.90
2019-05-23T02:31:14.279Z,67.80
2019-05-23T02:33:46.073Z,67.10
2019-05-23T02:36:17.703Z,66.70
2019-05-23T02:39:16.428Z,67.10
2019-05-23T02:41:57.914Z,67.40
2019-05-23T02:44:32.132Z,67.40
2019-05-23T02:47:14.737Z,67.50
2019-05-23T02:49:47.922Z,67.40
2019-05-23T02:52:46.417Z,67.40
2019-05-23T02:55:38.905Z,67.60
2019-05-23T02:58:38.983Z,67.10
2019-05-23T03:01:49.202Z,67.50
2019-05-23T03:04:24.996Z,67.60
2019-05-23T03:06:56.488Z,67.50
2019-05-23T03:09:34.028Z,67.50
2019-05-23T03:12:07.404Z,67.50
2019-05-23T03:14:39.580Z,67.40
2019-05-23T03:17:16.331Z,67.40
2019-05-23T03:19:56.050Z,67.10
2019-05-23T03:22:54.231Z,67.30
2019-05-23T03:26:16.675Z,67.30
2019-05-23T03:28:48.472Z,67.20
2019-05-23T03:31:31.492Z,67.20
2019-05-23T03:34:00.309Z,67.40
2019-05-23T03:36:31.797Z,67.30
2019-05-23T03:39:04.196Z,67.50
2019-05-23T03:41:35.885Z,67.40
2019-05-23T03:44:09.038Z,67.40
2019-05-23T03:46:44.631Z,67.50
2019-05-23T03:49:16.391Z,67.50
2019-05-23T03:51:48.028Z,67.30
2019-05-23T03:54:21.104Z,67.50
2019-05-23T03:56:52.325Z,67.40
2019-05-23T03:59:24.907Z,67.60
2019-05-23T04:01:56.775Z,67.60
2019-05-23T04:04:28.372Z,67.70
2019-05-23T04:06:59.740Z,67.30
2019-05-23T04:09:31.165Z,67.40
2019-05-23T04:12:02.388Z,67.40
2019-05-23T04:14:33.879Z,67.10
2019-05-23T04:17:06.585Z,67.50
2019-05-23T04:19:37.898Z,67.50
2019-05-23T04:22:09.349Z,67.60
2019-05-23T04:24:40.747Z,67.80
2019-05-23T04:27:12.365Z,67.90
2019-05-23T04:29:43.678Z,67.80
2019-05-23T04:32:14.976Z,67.80
2019-05-23T04:34:46.250Z,67.50
2019-05-23T04:37:17.551Z,67.60
2019-05-23T04:39:48.848Z,67.60
2019-05-23T04:42:20.230Z,67.60
2019-05-23T04:44:51.539Z,67.20
2019-05-23T04:47:23.863Z,67.10
2019-05-23T04:49:55.284Z,67.20
2019-05-23T04:52:27.325Z,66.90
2019-05-23T04:54:58.994Z,66.80
2019-05-23T04:57:30.855Z,66.90
2019-05-23T05:00:03.352Z,67.00
2019-05-23T05:02:34.634Z,66.80
2019-05-23T05:05:07.905Z,66.80
2019-05-23T05:07:39.122Z,66.80
2019-05-23T05:10:12.224Z,67.10
2019-05-23T05:12:44.155Z,67.80
2019-05-23T05:15:15.436Z,67.00
2019-05-23T05:17:47.272Z,67.00
2019-05-23T05:20:18.558Z,67.20
2019-05-23T05:22:51.251Z,67.20
2019-05-23T05:25:22.627Z,67.40
2019-05-23T05:27:53.849Z,67.80
2019-05-23T05:30:34.140Z,68.00
2019-05-23T05:33:05.494Z,68.20
2019-05-23T05:35:36.738Z,68.20
2019-05-23T05:38:07.942Z,68.30
2019-05-23T05:40:39.642Z,68.40
2019-05-23T05:43:11.045Z,68.20
2019-05-23T05:45:42.300Z,68.40
2019-05-23T05:48:13.536Z,68.40
2019-05-23T05:50:44.759Z,68.70
2019-05-23T05:53:15.957Z,68.80
2019-05-23T05:55:47.208Z,69.00
2019-05-23T05:58:18.387Z,68.90
2019-05-23T06:00:54.241Z,68.90
2019-05-23T06:03:25.357Z,68.90
2019-05-23T06:06:03.484Z,69.10
2019-05-23T06:08:36.627Z,69.20
2019-05-23T06:11:08.132Z,69.30
2019-05-23T06:13:39.424Z,69.50
2019-05-23T06:16:10.902Z,69.40
2019-05-23T06:18:42.110Z,69.50
2019-05-23T06:21:15.085Z,69.20
2019-05-23T06:23:46.649Z,69.40
2019-05-23T06:26:17.896Z,69.40
2019-05-23T06:28:49.716Z,69.20
2019-05-23T06:31:21.611Z,69.40
2019-05-23T06:33:53.631Z,69.80
2019-05-23T06:36:24.863Z,70.00
2019-05-23T06:38:56.803Z,70.10
2019-05-23T06:41:28.308Z,70.30
2019-05-23T06:43:59.497Z,70.30
2019-05-23T06:46:30.810Z,70.20
2019-05-23T06:49:02.203Z,70.30
2019-05-23T06:51:33.477Z,70.20
2019-05-23T06:54:05.130Z,70.20
2019-05-23T06:56:36.681Z,70.20
2019-05-23T06:59:08.099Z,70.20
2019-05-23T07:01:39.298Z,70.50
2019-05-23T07:04:10.615Z,70.70
2019-05-23T07:06:41.864Z,70.70
2019-05-23T07:09:16.008Z,70.90
2019-05-23T07:11:47.196Z,71.00
2019-05-23T07:14:18.436Z,70.90
2019-05-23T07:16:50.428Z,71.20
2019-05-23T07:19:22.204Z,70.90
2019-05-23T07:21:53.866Z,71.00
2019-05-23T07:24:25.647Z,70.90
2019-05-23T07:26:56.999Z,71.10
2019-05-23T07:29:28.282Z,71.10
2019-05-23T07:31:59.514Z,71.30
2019-05-23T07:34:30.742Z,71.40
2019-05-23T07:37:01.946Z,71.20
2019-05-23T07:39:33.170Z,70.90
2019-05-23T07:42:04.932Z,71.10
2019-05-23T07:44:47.861Z,70.70
2019-05-23T07:47:11.677Z,70.60
2019-05-23T07:49:43.052Z,70.50
2019-05-23T07:52:14.311Z,71.00
2019-05-23T07:54:59.731Z,71.00
2019-05-23T07:57:31.305Z,70.90
2019-05-23T08:00:04.571Z,70.30
2019-05-23T08:02:38.971Z,70.50
2019-05-23T08:05:11.854Z,70.30
2019-05-23T08:07:43.202Z,70.50
2019-05-23T08:10:32.197Z,70.20
2019-05-23T08:12:47.604Z,70.10
2019-05-23T08:15:18.900Z,69.80
2019-05-23T08:17:50.287Z,69.60
2019-05-23T08:20:21.683Z,69.50
2019-05-23T08:22:52.933Z,69.80
2019-05-23T08:25:25.793Z,69.80
2019-05-23T08:27:57.108Z,69.00
2019-05-23T08:30:28.394Z,69.00
2019-05-23T08:32:59.863Z,68.60
2019-05-23T08:37:21.217Z,69.00
2019-05-23T08:39:54.789Z,69.10
2019-05-23T08:42:26.986Z,68.30
2019-05-23T08:44:59.274Z,68.40
2019-05-23T08:47:32.361Z,68.50
2019-05-23T08:50:04.794Z,68.20
2019-05-23T08:52:36.981Z,68.30
2019-05-23T08:55:20.810Z,68.30
2019-05-23T08:57:53.834Z,68.60
2019-05-23T09:00:27.791Z,67.70
2019-05-23T09:03:02.052Z,67.00
2019-05-23T09:05:34.412Z,66.90
2019-05-23T09:08:06.694Z,66.50
2019-05-23T09:10:39.592Z,65.90
2019-05-23T09:13:12.845Z,66.60
2019-05-23T09:15:45.244Z,66.20
2019-05-23T09:18:17.456Z,65.50
2019-05-23T09:20:49.708Z,65.50
2019-05-23T09:23:22.058Z,65.00
2019-05-23T09:25:54.300Z,64.90
2019-05-23T09:28:26.649Z,65.20
2019-05-23T09:30:59.099Z,65.60
2019-05-23T09:33:31.759Z,65.50
2019-05-23T09:36:03.990Z,65.40
2019-05-23T09:38:36.291Z,65.50
2019-05-23T09:41:08.560Z,65.50
2019-05-23T09:43:40.678Z,66.20
2019-05-23T09:46:13.071Z,65.40
2019-05-23T09:48:45.370Z,64.70
2019-05-23T09:51:17.717Z,64.50
2019-05-23T09:53:51.139Z,65.00
2019-05-23T09:56:23.472Z,64.10
2019-05-23T09:58:55.803Z,63.30
2019-05-23T10:01:28.058Z,64.10
2019-05-23T10:04:00.304Z,64.20
2019-05-23T10:06:32.793Z,64.10
2019-05-23T10:09:06.774Z,64.20
2019-05-23T10:11:38.987Z,64.00
2019-05-23T10:14:15.799Z,63.20
2019-05-23T10:16:48.116Z,63.30
2019-05-23T10:19:20.248Z,63.20
2019-05-23T10:21:52.554Z,63.20
2019-05-23T10:24:25.002Z,63.10
2019-05-23T10:26:57.311Z,62.90
2019-05-23T10:29:29.537Z,62.10
2019-05-23T10:32:01.759Z,61.10
2019-05-23T10:34:34.042Z,61.70
2019-05-23T10:37:08.227Z,61.60
2019-05-23T10:39:42.527Z,61.70
2019-05-23T10:42:14.789Z,61.40
2019-05-23T10:44:46.992Z,61.70
2019-05-23T10:47:19.854Z,61.70
2019-05-23T10:49:52.049Z,61.90
2019-05-23T10:52:24.467Z,62.00
2019-05-23T10:54:56.660Z,62.00
2019-05-23T10:57:28.871Z,60.90
2019-05-23T11:00:01.139Z,61.70
2019-05-23T11:02:35.143Z,61.60
2019-05-23T11:05:12.765Z,61.20
2019-05-23T11:07:42.854Z,61.50
2019-05-23T11:10:16.145Z,61.60
2019-05-23T11:12:48.449Z,61.00
2019-05-23T11:15:20.757Z,60.80
2019-05-23T11:17:53.962Z,60.00
2019-05-23T11:20:26.994Z,59.20
2019-05-23T11:22:59.226Z,58.10
2019-05-23T11:25:32.456Z,58.00
2019-05-23T11:28:04.913Z,58.40
2019-05-23T11:30:53.862Z,57.90
2019-05-23T11:33:26.241Z,57.60
2019-05-23T11:35:58.798Z,57.30
2019-05-23T11:38:31.306Z,57.40
2019-05-23T11:41:03.840Z,56.90
2019-05-23T11:43:36.069Z,58.30
2019-05-23T11:46:21.780Z,57.80
2019-05-23T11:48:54.451Z,57.30
2019-05-23T11:51:27.331Z,57.50
2019-05-23T11:54:07.523Z,57.80
2019-05-23T11:56:35.202Z,57.40
2019-05-23T11:59:07.755Z,56.90
2019-05-23T12:02:05.175Z,57.50
2019-05-23T12:04:40.140Z,57.00
2019-05-23T12:07:16.997Z,56.80
2019-05-23T12:09:49.365Z,56.60
2019-05-23T12:12:21.581Z,56.80
2019-05-23T12:14:54.332Z,57.50
2019-05-23T12:17:29.626Z,57.30
2019-05-23T12:20:01.857Z,57.70
2019-05-23T12:22:34.556Z,57.90
2019-05-23T12:25:20.954Z,58.30
2019-05-23T12:27:42.324Z,58.30
2019-05-23T12:30:16.090Z,58.70
2019-05-23T12:32:48.288Z,58.70
2019-05-23T12:35:20.737Z,58.60
2019-05-23T12:37:52.984Z,58.80
2019-05-23T12:40:25.210Z,58.50
2019-05-23T12:42:57.513Z,58.90
2019-05-23T12:45:29.791Z,58.90
2019-05-23T12:48:06.708Z,59.10
2019-05-23T12:50:41.764Z,58.20
2019-05-23T12:53:15.420Z,58.40
2019-05-23T12:55:47.668Z,58.60
2019-05-23T12:58:19.880Z,57.50
2019-05-23T13:00:57.053Z,57.10
2019-05-23T13:03:29.725Z,57.10
2019-05-23T13:06:02.031Z,55.80
2019-05-23T13:08:34.287Z,55.70
2019-05-23T13:11:06.718Z,55.70
2019-05-23T13:13:38.987Z,56.30
2019-05-23T13:16:11.248Z,56.40
2019-05-23T13:18:43.523Z,56.50
2019-05-23T13:21:15.759Z,56.10
2019-05-23T13:23:48.013Z,56.70
2019-05-23T13:26:20.467Z,56.10
2019-05-23T13:28:52.697Z,56.00
2019-05-23T13:31:25.290Z,56.30
2019-05-23T13:33:57.574Z,55.90
2019-05-23T13:36:29.812Z,55.50
2019-05-23T13:39:02.111Z,56.10
2019-05-23T13:41:34.605Z,56.20
2019-05-23T13:44:07.325Z,56.80
2019-05-23T13:46:39.520Z,57.40
2019-05-23T13:49:12.183Z,57.80
2019-05-23T13:51:44.645Z,58.00
2019-05-23T13:54:16.909Z,57.80
2019-05-23T13:56:50.350Z,58.10
2019-05-23T13:59:22.635Z,57.70
2019-05-23T14:01:54.989Z,57.70
2019-05-23T14:04:27.441Z,57.90
2019-05-23T14:07:00.739Z,57.60
2019-05-23T14:09:33.034Z,57.50
2019-05-23T14:12:20.729Z,57.50
2019-05-23T14:14:39.723Z,57.70
2019-05-23T14:17:26.108Z,58.00
2019-05-23T14:19:58.328Z,58.50
2019-05-23T14:22:32.889Z,58.70
2019-05-23T14:25:06.361Z,58.80
2019-05-23T14:27:48.181Z,58.30
2019-05-23T14:30:34.205Z,58.30
2019-05-23T14:33:09.509Z,58.80
2019-05-23T14:35:42.536Z,58.50
2019-05-23T14:38:29.608Z,57.30
2019-05-23T14:40:50.705Z,57.20
2019-05-23T14:43:25.866Z,56.90
2019-05-23T14:46:12.338Z,56.80
2019-05-23T14:49:01.832Z,57.50
2019-05-23T14:51:49.396Z,58.00
2019-05-23T14:54:43.697Z,58.10
2019-05-23T14:57:16.184Z,57.90
2019-05-23T14:59:48.703Z,57.30
2019-05-23T15:02:21.625Z,56.90
2019-05-23T15:04:53.971Z,57.60
2019-05-23T15:07:26.338Z,57.70
2019-05-23T15:09:58.750Z,58.10
2019-05-23T15:12:31.244Z,57.60
2019-05-23T15:15:03.746Z,57.70
2019-05-23T15:17:36.191Z,58.30
2019-05-23T15:20:08.612Z,58.40
2019-05-23T15:22:40.997Z,57.80
2019-05-23T15:25:13.403Z,57.40
2019-05-23T15:27:45.647Z,57.90
2019-05-23T15:30:18.462Z,57.60
2019-05-23T15:32:50.765Z,58.30
2019-05-23T15:35:23.117Z,58.50
2019-05-23T15:37:55.465Z,58.20
2019-05-23T15:40:28.144Z,58.60
2019-05-23T15:43:00.313Z,58.10
2019-05-23T15:45:32.881Z,57.90
2019-05-23T15:48:05.200Z,57.50
2019-05-23T15:50:43.199Z,59.20
2019-05-23T15:53:24.075Z,58.90
2019-05-23T15:56:27.014Z,58.80
2019-05-23T15:58:59.599Z,58.70
2019-05-23T16:01:43.228Z,58.50
2019-05-23T16:04:17.334Z,58.50
2019-05-23T16:06:51.125Z,58.70
2019-05-23T16:09:30.287Z,59.00
2019-05-23T16:11:57.993Z,59.10
2019-05-23T16:14:31.236Z,58.70
2019-05-23T16:17:05.286Z,58.80
2019-05-23T16:19:37.822Z,59.00
2019-05-23T16:22:10.528Z,59.10
2019-05-23T16:24:42.919Z,59.00
2019-05-23T16:27:15.509Z,59.00
2019-05-23T16:29:47.814Z,59.10
2019-05-23T16:32:20.148Z,58.80
2019-05-23T16:34:52.521Z,59.10
2019-05-23T16:37:25.201Z,58.40
2019-05-23T16:39:57.566Z,58.50
2019-05-23T16:42:30.374Z,58.50
2019-05-23T16:45:02.686Z,59.00
2019-05-23T16:47:35.156Z,59.10
2019-05-23T16:50:07.499Z,59.80
2019-05-23T16:52:39.896Z,59.00
2019-05-23T16:55:19.345Z,59.00
2019-05-23T16:57:56.395Z,58.90
2019-05-23T17:00:48.370Z,58.90
2019-05-23T17:03:49.970Z,59.10
2019-05-23T17:06:48.966Z,59.70
2019-05-23T17:09:42.432Z,59.40
2019-05-23T17:12:35.073Z,59.30
2019-05-23T17:15:21.323Z,60.00
2019-05-23T17:18:26.292Z,59.80
2019-05-23T17:21:21.525Z,59.70
2019-05-23T17:24:30.985Z,59.80
2019-05-23T17:27:29.187Z,59.90
2019-05-23T17:30:56.955Z,59.30
2019-05-23T17:33:32.065Z,59.80
2019-05-23T17:36:11.050Z,59.30
2019-05-23T17:38:48.530Z,59.70
2019-05-23T17:41:23.258Z,59.70
2019-05-23T17:44:17.418Z,60.00
2019-05-23T17:46:51.217Z,60.30
2019-05-23T17:49:24.851Z,60.50
2019-05-23T17:52:00.024Z,60.70
2019-05-23T17:54:35.812Z,59.80
2019-05-23T17:57:11.476Z,60.20
2019-05-23T17:59:46.872Z,59.80
2019-05-23T18:02:22.891Z,60.00
2019-05-23T18:05:00.414Z,60.00
2019-05-23T18:07:42.510Z,60.30
2019-05-23T18:10:22.233Z,60.40
2019-05-23T18:13:06.643Z,60.80
2019-05-23T18:16:26.041Z,60.00
2019-05-23T18:19:01.986Z,60.20
2019-05-23T18:21:39.567Z,59.90
2019-05-23T18:24:42.949Z,60.00
2019-05-23T18:27:36.466Z,59.90
2019-05-23T18:31:10.224Z,60.30
2019-05-23T18:33:56.847Z,60.30
2019-05-23T18:37:12.570Z,60.60
2019-05-23T18:41:08.724Z,60.20
2019-05-23T18:43:42.356Z,59.80
2019-05-23T18:46:41.915Z,59.70
2019-05-23T18:49:17.305Z,59.50
2019-05-23T18:51:52.641Z,59.60
2019-05-23T18:54:29.773Z,59.50
2019-05-23T18:57:07.375Z,59.50
2019-05-23T18:59:41.341Z,59.70
2019-05-23T19:02:17.713Z,60.00
2019-05-23T19:05:04.467Z,59.70
2019-05-23T19:08:06.793Z,59.70
2019-05-23T19:10:41.775Z,59.60
2019-05-23T19:13:17.575Z,59.50
2019-05-23T19:15:56.688Z,60.20
2019-05-23T19:18:30.128Z,60.00
2019-05-23T19:21:09.880Z,59.80
2019-05-23T19:23:46.385Z,60.00
2019-05-23T19:26:20.715Z,59.90
2019-05-23T19:28:54.630Z,59.60
2019-05-23T19:31:29.295Z,59.60
2019-05-23T19:34:21.093Z,59.90
2019-05-23T19:36:56.008Z,60.20
2019-05-23T19:39:31.457Z,59.90
2019-05-23T19:42:07.080Z,60.00
2019-05-23T19:47:21.454Z,60.50
2019-05-23T19:49:54.921Z,59.90
2019-05-23T19:52:29.916Z,60.10
2019-05-23T19:55:05.452Z,60.10
2019-05-23T19:57:38.906Z,60.00
2019-05-23T20:00:16.216Z,60.00
2019-05-23T20:03:04.474Z,60.00
2019-05-23T20:05:39.236Z,60.20
2019-05-23T20:08:11.581Z,60.40
2019-05-23T20:10:43.841Z,60.50
2019-05-23T20:13:18.525Z,60.40
2019-05-23T20:15:50.441Z,60.40
2019-05-23T20:18:23.095Z,60.40
2019-05-23T20:20:55.227Z,60.60
2019-05-23T20:23:27.734Z,60.70
2019-05-23T20:25:59.935Z,60.70
2019-05-23T20:28:32.480Z,60.60
2019-05-23T20:31:05.064Z,60.70
2019-05-23T20:33:37.297Z,60.50
2019-05-23T20:36:13.208Z,60.40
2019-05-23T20:38:46.036Z,60.30
2019-05-23T20:41:19.030Z,60.50
2019-05-23T20:43:51.255Z,60.70
2019-05-23T20:46:23.633Z,60.90
2019-05-23T20:48:55.834Z,60.70
2019-05-23T20:51:28.089Z,60.60
2019-05-23T20:54:01.389Z,60.80
2019-05-23T20:56:33.720Z,60.80
2019-05-23T20:59:06.026Z,60.70
2019-05-23T21:01:40.375Z,60.70
2019-05-23T21:04:12.858Z,60.80
2019-05-23T21:06:45.054Z,60.70
2019-05-23T21:09:17.429Z,60.80
2019-05-23T21:11:51.843Z,60.70
2019-05-23T21:14:24.279Z,60.90
2019-05-23T21:16:56.469Z,61.00
2019-05-23T21:19:28.682Z,61.10
2019-05-23T21:22:00.875Z,60.90
2019-05-23T21:24:34.158Z,60.90
2019-05-23T21:27:06.516Z,60.90
2019-05-23T21:29:38.808Z,61.00
2019-05-23T21:32:11.482Z,60.90
2019-05-23T21:34:43.760Z,60.90
2019-05-23T21:37:16.029Z,61.10
2019-05-23T21:39:48.319Z,61.10
2019-05-23T21:42:20.594Z,61.10
2019-05-23T21:44:52.818Z,61.20
2019-05-23T21:47:25.005Z,61.10
2019-05-23T21:49:57.227Z,61.20
2019-05-23T21:52:29.498Z,61.20
2019-05-23T21:55:01.778Z,61.20
2019-05-23T21:57:33.972Z,61.30
2019-05-23T22:00:08.110Z,61.30
2019-05-23T22:02:41.971Z,61.30
2019-05-23T22:05:16.441Z,61.30
2019-05-23T22:07:49.039Z,61.30
2019-05-23T22:10:21.429Z,61.30
2019-05-23T22:13:03.808Z,61.30
2019-05-23T22:15:39.421Z,61.30
2019-05-23T22:18:11.705Z,61.40
2019-05-23T22:20:44.078Z,61.30
2019-05-23T22:23:16.262Z,61.30
2019-05-23T22:25:48.555Z,61.30
2019-05-23T22:28:21.305Z,61.30
2019-05-23T22:30:53.460Z,61.30
2019-05-23T22:33:27.243Z,61.30
2019-05-23T22:36:00.413Z,61.30
2019-05-23T22:38:32.617Z,61.60
2019-05-23T22:41:04.892Z,61.60
2019-05-23T22:43:38.079Z,61.70
2019-05-23T22:46:10.900Z,61.90
2019-05-23T22:48:43.225Z,61.80
2019-05-23T22:51:15.446Z,61.70
2019-05-23T22:53:47.696Z,61.70
2019-05-23T22:56:19.931Z,61.70
2019-05-23T22:58:52.121Z,61.60
2019-05-23T23:01:26.437Z,61.70
2019-05-23T23:03:58.636Z,61.60
2019-05-23T23:06:31.233Z,61.60
2019-05-23T23:09:03.459Z,61.60
2019-05-23T23:11:35.750Z,61.60
2019-05-23T23:14:08.023Z,61.60
2019-05-23T23:16:40.385Z,61.60
2019-05-23T23:19:12.663Z,61.60
2019-05-23T23:21:45.958Z,61.70
2019-05-23T23:24:18.220Z,61.70
2019-05-23T23:26:50.598Z,61.70
2019-05-23T23:29:22.949Z,61.60
2019-05-23T23:31:55.095Z,62.00
2019-05-23T23:34:27.329Z,62.00
2019-05-23T23:36:59.632Z,61.90
2019-05-23T23:39:31.813Z,62.00
2019-05-23T23:42:04.988Z,62.10
2019-05-23T23:44:36.220Z,62.20
2019-05-23T23:47:26.182Z,62.00
2019-05-23T23:50:15.739Z,62.00
2019-05-23T23:53:05.474Z,62.00
2019-05-23T23:55:55.545Z,62.10
2019-05-23T23:58:26.796Z,61.90
